Time;durP1;ratioP1;P1;durP2;ratioP2;P2;SDS_P1;SDS_P2;PMS_P1;PMS_P2;Temp;Humidity;BMP_temperature;BMP_pressure;BME280_temperature;BME280_humidity;BME280_pressure;Samples;Min_cycle;Max_cycle;Signal;HPM_P1;HPM_P2
2021/12/22 11:31:26;;;;;;;19.37;14.20;;;0.20;99.90;;;;;;5062619;27;1218859;-69
2021/12/22 11:33:54;;;;;;;21.37;14.23;;;0.20;99.90;;;;;;5086300;28;20044;-69
2021/12/22 11:36:19;;;;;;;20.43;14.07;;;0.20;99.90;;;;;;5085167;28;20040;-70
2021/12/22 11:38:45;;;;;;;19.93;12.03;;;0.20;99.90;;;;;;5084003;28;20305;-68
2021/12/22 11:41:17;;;;;;;17.23;13.07;;;0.30;99.90;;;;;;5084959;28;20044;-68
2021/12/22 11:43:44;;;;;;;19.00;14.00;;;0.40;99.90;;;;;;5086111;28;20384;-72
2021/12/22 11:46:11;;;;;;;20.30;13.97;;;0.50;99.90;;;;;;5084363;28;20294;-72
2021/12/22 11:48:38;;;;;;;20.03;13.37;;;0.50;99.90;;;;;;5067521;28;20651;-70
2021/12/22 11:51:27;;;;;;;19.03;12.40;;;0.60;99.90;;;;;;5085653;28;20420;-70
2021/12/22 11:53:58;;;;;;;18.20;12.10;;;0.70;99.90;;;;;;5085847;28;20697;-72
2021/12/22 11:56:34;;;;;;;20.37;12.77;;;0.70;99.90;;;;;;5084296;28;20295;-70
2021/12/22 11:59:00;;;;;;;20.13;12.03;;;0.80;99.90;;;;;;5085233;28;20281;-70
2021/12/22 12:01:25;;;;;;;20.63;12.33;;;0.80;99.90;;;;;;5071932;28;20299;-70
2021/12/22 12:04:15;;;;;;;17.20;12.17;;;0.80;99.90;;;;;;5065310;28;20041;-69
2021/12/22 12:06:48;;;;;;;20.73;12.17;;;0.80;99.90;;;;;;5064686;28;20049;-68
2021/12/22 12:09:15;;;;;;;21.73;12.90;;;0.80;99.90;;;;;;5064589;28;20290;-68
2021/12/22 12:11:50;;;;;;;19.57;12.33;;;0.80;99.90;;;;;;5064038;28;20413;-68
2021/12/22 12:23:34;;;;;;;21.17;11.83;;;0.80;99.90;;;;;;5065181;28;20786;-70
2021/12/22 12:26:03;;;;;;;18.57;11.87;;;0.90;99.90;;;;;;5065216;28;20295;-71
2021/12/22 12:28:30;;;;;;;17.70;12.17;;;0.90;99.90;;;;;;5063690;28;20341;-71
2021/12/22 12:30:59;;;;;;;20.77;12.90;;;1.00;99.90;;;;;;5063445;28;20315;-74
2021/12/22 12:33:27;;;;;;;19.17;13.33;;;1.00;99.90;;;;;;5063287;28;20295;-69
2021/12/22 12:36:04;;;;;;;17.10;13.30;;;1.00;99.90;;;;;;5062913;28;20349;-70
2021/12/22 12:38:47;;;;;;;19.70;12.77;;;1.00;99.90;;;;;;5063886;28;20345;-69
2021/12/22 12:41:16;;;;;;;18.33;11.90;;;1.10;99.90;;;;;;5059147;28;20906;-70
2021/12/22 12:46:19;;;;;;;19.03;11.97;;;1.10;99.90;;;;;;5049968;28;20377;-71
2021/12/22 12:48:52;;;;;;;17.67;11.30;;;1.10;99.90;;;;;;5048410;28;20051;-70
2021/12/22 12:51:21;;;;;;;17.23;11.73;;;1.20;99.90;;;;;;5048927;28;20319;-71
2021/12/22 12:53:51;;;;;;;19.23;11.80;;;1.20;99.90;;;;;;5050633;28;20291;-69
2021/12/22 12:56:19;;;;;;;18.73;11.97;;;1.20;99.90;;;;;;5049431;28;20303;-69
2021/12/22 12:58:53;;;;;;;16.67;11.97;;;1.20;99.90;;;;;;5050632;28;20371;-68
2021/12/22 13:01:45;;;;;;;17.67;11.90;;;1.30;99.90;;;;;;5049441;28;20295;-69
2021/12/22 13:04:23;;;;;;;14.27;11.13;;;1.30;99.90;;;;;;5049194;28;20295;-70
2021/12/22 13:07:16;;;;;;;16.87;11.67;;;1.40;99.90;;;;;;5050011;28;20045;-71
2021/12/22 13:09:49;;;;;;;16.10;12.23;;;1.30;99.90;;;;;;5045746;28;20400;-72
2021/12/22 13:12:32;;;;;;;16.40;12.57;;;1.30;99.90;;;;;;5050165;28;20303;-77
2021/12/22 13:18:00;;;;;;;14.87;10.77;;;1.30;99.90;;;;;;5047390;28;20287;-71
2021/12/22 13:20:37;;;;;;;;;;;1.20;99.90;;;;;;5050721;28;20295;-72
2021/12/22 13:23:06;;;;;;;15.90;11.07;;;1.20;99.90;;;;;;5049830;28;19921;-72
2021/12/22 13:25:37;;;;;;;19.57;12.40;;;1.20;99.90;;;;;;5049514;28;20768;-72
2021/12/22 13:28:15;;;;;;;17.73;13.10;;;1.20;99.90;;;;;;5049848;28;20283;-74
2021/12/22 13:30:46;;;;;;;15.47;11.53;;;1.20;99.90;;;;;;5049227;28;20524;-69
2021/12/22 13:33:21;;;;;;;18.48;12.07;;;1.20;99.90;;;;;;5048598;28;20437;-70
2021/12/22 13:35:54;;;;;;;18.43;12.97;;;1.20;99.90;;;;;;5048349;28;20428;-70
2021/12/22 13:38:23;;;;;;;19.27;13.10;;;1.20;99.90;;;;;;5048970;28;20279;-70
2021/12/22 13:40:58;;;;;;;19.30;11.93;;;1.20;99.90;;;;;;5049917;28;20291;-70
2021/12/22 13:43:45;;;;;;;16.10;11.77;;;1.20;99.90;;;;;;5048466;28;20295;-69
2021/12/22 13:46:15;;;;;;;19.17;12.93;;;1.20;99.90;;;;;;5049080;28;20309;-74
2021/12/22 13:49:14;;;;;;;20.33;12.83;;;1.20;99.90;;;;;;5047993;28;20384;-74
2021/12/22 13:51:48;;;;;;;16.08;12.60;;;1.20;99.90;;;;;;5049013;28;20280;-73
2021/12/22 13:54:20;;;;;;;18.00;12.40;;;1.20;99.90;;;;;;5047800;28;20489;-68
2021/12/22 13:56:48;;;;;;;;;;;1.20;99.90;;;;;;5049832;28;20492;-71
2021/12/22 13:59:16;;;;;;;16.13;12.63;;;1.20;99.90;;;;;;5047503;28;19927;-68
2021/12/22 14:01:44;;;;;;;18.27;12.53;;;1.10;99.90;;;;;;5049160;28;20279;-68
2021/12/22 14:04:36;;;;;;;19.20;13.47;;;1.10;99.90;;;;;;5049746;28;20339;-70
2021/12/22 14:07:05;;;;;;;19.33;12.37;;;1.10;99.90;;;;;;5047997;28;20291;-68
2021/12/22 14:09:31;;;;;;;16.63;11.33;;;1.20;99.90;;;;;;5049278;28;20396;-68
2021/12/22 14:12:08;;;;;;;16.40;12.20;;;1.10;99.90;;;;;;5048664;28;20291;-67
2021/12/22 14:14:38;;;;;;;16.20;11.80;;;1.10;99.90;;;;;;5049372;28;20272;-68
2021/12/22 14:17:06;;;;;;;19.27;11.40;;;1.10;99.90;;;;;;5048441;28;20386;-68
2021/12/22 14:19:36;;;;;;;19.53;12.53;;;1.10;99.90;;;;;;5046888;28;20341;-71
2021/12/22 14:22:06;;;;;;;17.17;11.43;;;1.10;99.90;;;;;;5047956;28;20292;-73
2021/12/22 14:24:42;;;;;;;18.77;11.57;;;1.10;99.90;;;;;;5048038;28;20378;-74
2021/12/22 14:27:12;;;;;;;18.57;13.17;;;1.10;99.90;;;;;;5046805;28;20811;-73
2021/12/22 14:29:50;;;;;;;17.33;11.63;;;1.10;99.90;;;;;;5046710;28;20311;-74
2021/12/22 14:32:41;;;;;;;20.03;13.10;;;1.00;99.90;;;;;;5048667;28;20967;-73
2021/12/22 14:35:14;;;;;;;16.57;12.20;;;1.00;99.90;;;;;;5048680;28;20290;-68
2021/12/22 14:37:44;;;;;;;17.63;12.53;;;1.00;99.90;;;;;;5047651;28;20372;-66
2021/12/22 14:40:22;;;;;;;19.93;15.90;;;1.00;99.90;;;;;;5048032;28;20291;-66
2021/12/22 14:43:11;;;;;;;17.00;11.80;;;1.00;99.90;;;;;;5048308;28;20302;-65
2021/12/22 14:45:42;;;;;;;22.53;12.33;;;1.00;99.90;;;;;;5047374;28;20299;-66
2021/12/22 14:48:18;;;;;;;16.97;11.67;;;1.00;99.90;;;;;;5048277;28;20774;-65
2021/12/22 14:51:05;;;;;;;17.57;12.60;;;1.00;99.90;;;;;;5047352;28;20322;-67
2021/12/22 14:54:04;;;;;;;19.17;12.70;;;0.90;99.90;;;;;;5046932;28;20294;-66
2021/12/22 14:56:42;;;;;;;17.70;12.07;;;0.80;99.90;;;;;;5047047;28;20659;-66
2021/12/22 14:59:09;;;;;;;20.00;13.00;;;0.80;99.90;;;;;;5048247;28;20299;-66
2021/12/22 15:01:35;;;;;;;20.33;12.83;;;0.80;99.90;;;;;;5047900;28;20810;-76
2021/12/22 15:04:01;;;;;;;23.53;13.40;;;0.80;99.90;;;;;;5046858;28;20318;-73
2021/12/22 15:06:28;;;;;;;19.30;12.57;;;0.80;99.90;;;;;;5048098;28;20287;-73
2021/12/22 15:08:55;;;;;;;17.07;12.70;;;0.70;99.90;;;;;;5046368;28;20306;-73
2021/12/22 15:11:22;;;;;;;21.03;13.00;;;0.70;99.90;;;;;;5047556;28;20346;-72
2021/12/22 15:13:48;;;;;;;17.23;12.90;;;0.60;99.90;;;;;;5048032;28;20362;-73
2021/12/22 15:16:15;;;;;;;16.50;11.63;;;0.60;99.90;;;;;;5047241;28;20656;-73
2021/12/22 15:18:42;;;;;;;21.00;12.10;;;0.60;99.90;;;;;;5046744;28;20712;-72
2021/12/22 15:21:08;;;;;;;17.87;12.00;;;0.50;99.90;;;;;;5047130;28;20302;-71
2021/12/22 15:23:34;;;;;;;16.60;11.77;;;0.50;99.90;;;;;;5045747;28;20322;-72
2021/12/22 15:26:00;;;;;;;20.03;13.10;;;0.50;99.90;;;;;;5048370;28;20295;-72
2021/12/22 15:28:27;;;;;;;16.73;12.27;;;0.50;99.90;;;;;;5048253;28;20291;-71
2021/12/22 15:30:53;;;;;;;20.43;13.40;;;0.50;99.90;;;;;;5046973;28;20061;-71
2021/12/22 15:33:22;;;;;;;21.67;12.50;;;0.50;99.90;;;;;;5046652;28;20283;-75
2021/12/22 15:35:49;;;;;;;20.47;13.93;;;0.40;99.90;;;;;;5046543;28;20327;-73
2021/12/22 15:38:15;;;;;;;20.70;12.93;;;0.40;99.90;;;;;;5046400;28;20280;-72
2021/12/22 15:40:41;;;;;;;19.47;12.47;;;0.30;99.90;;;;;;5047642;28;20880;-71
2021/12/22 15:43:06;;;;;;;20.63;13.97;;;0.30;99.90;;;;;;5046463;28;20033;-68
2021/12/22 15:45:32;;;;;;;18.57;12.70;;;0.30;99.90;;;;;;5045514;28;20049;-69
2021/12/22 15:47:58;;;;;;;20.60;13.43;;;0.20;99.90;;;;;;5048528;28;20033;-66
2021/12/22 15:50:25;;;;;;;22.27;15.20;;;0.20;99.90;;;;;;5046060;28;20049;-67
2021/12/22 15:52:52;;;;;;;29.43;18.27;;;0.20;99.90;;;;;;5047650;28;20479;-69
2021/12/22 15:55:18;;;;;;;18.00;13.27;;;0.30;99.90;;;;;;5047402;28;20608;-68
2021/12/22 15:57:44;;;;;;;21.00;13.73;;;0.30;99.90;;;;;;5047001;28;20361;-70
2021/12/22 16:00:13;;;;;;;18.50;12.63;;;0.30;99.90;;;;;;5046388;28;20071;-68
2021/12/22 16:02:38;;;;;;;21.03;13.17;;;0.20;99.90;;;;;;5046943;28;20658;-68
2021/12/22 16:05:07;;;;;;;21.00;13.60;;;0.20;99.90;;;;;;5047455;28;20292;-69
2021/12/22 16:07:37;;;;;;;19.97;13.93;;;0.10;99.90;;;;;;5047310;28;20037;-68
2021/12/22 16:10:04;;;;;;;17.27;12.83;;;0.10;99.90;;;;;;5047617;28;20330;-70
2021/12/22 16:12:29;;;;;;;20.27;13.57;;;0.10;99.90;;;;;;5046538;28;20756;-68
2021/12/22 16:14:55;;;;;;;38.17;21.57;;;0.00;99.90;;;;;;5048137;28;20310;-68
2021/12/22 16:17:20;;;;;;;21.47;13.47;;;0.00;99.90;;;;;;5048849;28;20060;-68
2021/12/22 16:19:46;;;;;;;19.70;13.23;;;0.00;99.90;;;;;;5048742;28;20044;-67
2021/12/22 16:22:11;;;;;;;28.10;21.23;;;-0.10;99.90;;;;;;5051928;28;20405;-66
2021/12/22 16:24:37;;;;;;;23.47;15.33;;;-0.10;99.90;;;;;;5051027;28;20041;-66
2021/12/22 16:27:03;;;;;;;22.27;14.57;;;-0.10;99.90;;;;;;5049743;28;20120;-67
2021/12/22 16:29:29;;;;;;;18.53;14.93;;;0.00;99.90;;;;;;5049607;28;20617;-67
2021/12/22 16:31:55;;;;;;;17.77;13.30;;;-0.10;99.90;;;;;;5051673;28;20311;-67
2021/12/22 16:34:20;;;;;;;27.93;21.77;;;-0.10;99.90;;;;;;5050271;28;20041;-67
2021/12/22 16:36:46;;;;;;;25.33;17.70;;;-0.20;99.90;;;;;;5050858;28;20151;-67
2021/12/22 16:39:11;;;;;;;22.67;15.23;;;-0.20;99.90;;;;;;5050432;28;20365;-67
2021/12/22 16:41:37;;;;;;;23.87;16.57;;;-0.20;99.90;;;;;;5049301;28;20045;-67
2021/12/22 19:16:34;;;;;;;17.30;13.23;;;-0.80;99.90;;;;;;5043871;27;1187056;-66
2021/12/22 19:19:01;;;;;;;19.20;14.20;;;-0.80;99.90;;;;;;5059744;28;20068;-68
2021/12/22 19:21:27;;;;;;;21.67;14.60;;;-0.90;99.90;;;;;;5062736;28;20623;-66
2021/12/22 19:23:52;;;;;;;20.57;14.60;;;-0.80;99.90;;;;;;5064120;28;20315;-68
2021/12/22 19:26:18;;;;;;;19.97;13.40;;;-0.80;99.90;;;;;;5080288;28;20050;-66
2021/12/22 19:28:44;;;;;;;16.27;12.97;;;-0.70;99.90;;;;;;5081767;28;20137;-68
2021/12/22 19:31:09;;;;;;;18.40;13.67;;;-0.70;99.90;;;;;;5083690;28;20443;-68
2021/12/22 19:33:36;;;;;;;19.33;13.43;;;-0.60;99.90;;;;;;5082707;28;20052;-67
2021/12/22 19:36:05;;;;;;;16.77;13.10;;;-0.70;99.90;;;;;;5081857;28;20048;-68
2021/12/22 19:38:31;;;;;;;17.47;12.97;;;-0.70;99.90;;;;;;5083758;28;20343;-68
2021/12/22 19:40:56;;;;;;;18.43;13.17;;;-0.70;99.90;;;;;;5083399;28;20619;-72
2021/12/22 19:43:22;;;;;;;16.70;12.47;;;-0.60;99.90;;;;;;5083216;28;20283;-71
2021/12/22 19:45:48;;;;;;;17.07;12.33;;;-0.60;99.90;;;;;;5083545;28;20052;-71
2021/12/22 19:48:14;;;;;;;15.40;12.43;;;-0.60;99.90;;;;;;5082735;28;20282;-68
2021/12/22 19:50:41;;;;;;;17.47;12.60;;;-0.50;99.90;;;;;;5083120;28;20357;-69
2021/12/22 19:53:09;;;;;;;17.40;12.23;;;-0.50;99.90;;;;;;5083766;28;20044;-68
2021/12/22 19:55:35;;;;;;;16.30;11.43;;;-0.50;99.90;;;;;;5083503;28;20401;-70
2021/12/22 19:58:01;;;;;;;15.83;12.07;;;-0.40;99.90;;;;;;5083688;28;20374;-70
2021/12/22 20:00:29;;;;;;;17.10;11.87;;;-0.30;99.90;;;;;;5083617;28;20036;-71
2021/12/22 20:02:55;;;;;;;16.30;10.97;;;-0.30;99.90;;;;;;5083951;28;20298;-71
2021/12/22 20:05:23;;;;;;;16.97;12.10;;;-0.30;99.90;;;;;;5081385;28;20287;-72
2021/12/22 20:07:50;;;;;;;17.80;12.53;;;-0.20;99.90;;;;;;5082799;28;20386;-72
2021/12/22 20:10:19;;;;;;;13.43;11.23;;;-0.20;99.90;;;;;;5082150;28;20299;-71
2021/12/22 20:12:47;;;;;;;16.03;12.77;;;-0.30;99.90;;;;;;5081248;28;20322;-71
2021/12/22 20:15:13;;;;;;;15.67;11.93;;;-0.30;99.90;;;;;;5081893;28;20799;-71
2021/12/22 20:17:39;;;;;;;15.23;10.97;;;-0.40;99.90;;;;;;5082603;28;20386;-70
2021/12/22 20:20:07;;;;;;;18.20;12.07;;;-0.50;99.90;;;;;;5081599;28;20044;-71
2021/12/22 20:22:33;;;;;;;16.57;12.13;;;-0.60;99.90;;;;;;5081474;28;20711;-71
2021/12/22 20:24:58;;;;;;;15.83;10.90;;;-0.70;99.90;;;;;;5081683;28;20372;-71
2021/12/22 20:27:24;;;;;;;16.37;11.80;;;-0.70;99.90;;;;;;5072968;28;20044;-71
2021/12/22 20:29:54;;;;;;;16.33;11.90;;;-0.80;99.90;;;;;;5069199;28;20173;-71
2021/12/22 20:32:19;;;;;;;14.63;11.70;;;-0.80;99.90;;;;;;5067825;28;20060;-71
